sensor_id;sensor_type;location;lat;lon;timestamp;temperature;humidity
23697;DHT22;48864;50.820;4.400;2022-08-19T00:01:26;22.30;99.90
23697;DHT22;48864;50.820;4.400;2022-08-19T00:03:55;22.30;99.90
23697;DHT22;48864;50.820;4.400;2022-08-19T00:06:20;22.20;99.90
23697;DHT22;48864;50.820;4.400;2022-08-19T00:08:46;22.00;99.90
23697;DHT22;48864;50.820;4.400;2022-08-19T00:11:11;22.00;99.90
23697;DHT22;48864;50.820;4.400;2022-08-19T00:13:38;21.90;99.90
23697;DHT22;48864;50.820;4.400;2022-08-19T00:16:04;21.70;99.90
23697;DHT22;48864;50.820;4.400;2022-08-19T00:18:31;21.60;99.90
23697;DHT22;48864;50.820;4.400;2022-08-19T00:20:57;21.50;99.90
23697;DHT22;48864;50.820;4.400;2022-08-19T00:23:22;21.20;99.90
23697;DHT22;48864;50.820;4.400;2022-08-19T00:25:48;21.10;99.90
23697;DHT22;48864;50.820;4.400;2022-08-19T00:28:13;21.00;99.90
23697;DHT22;48864;50.820;4.400;2022-08-19T00:30:39;21.10;99.90
23697;DHT22;48864;50.820;4.400;2022-08-19T00:33:06;21.00;99.90
23697;DHT22;48864;50.820;4.400;2022-08-19T00:35:33;21.10;99.90
23697;DHT22;48864;50.820;4.400;2022-08-19T00:37:59;21.00;99.90
23697;DHT22;48864;50.820;4.400;2022-08-19T00:40:25;20.90;99.90
23697;DHT22;48864;50.820;4.400;2022-08-19T00:42:51;20.80;99.90
23697;DHT22;48864;50.820;4.400;2022-08-19T00:45:21;21.00;99.90
23697;DHT22;48864;50.820;4.400;2022-08-19T00:47:47;20.90;99.90
23697;DHT22;48864;50.820;4.400;2022-08-19T00:50:15;20.90;99.90
23697;DHT22;48864;50.820;4.400;2022-08-19T00:52:44;21.00;99.90
23697;DHT22;48864;50.820;4.400;2022-08-19T00:55:21;21.10;99.90
23697;DHT22;48864;50.820;4.400;2022-08-19T00:57:53;21.00;99.90
23697;DHT22;48864;50.820;4.400;2022-08-19T01:00:21;21.10;99.90
23697;DHT22;48864;50.820;4.400;2022-08-19T01:02:47;20.90;99.90
23697;DHT22;48864;50.820;4.400;2022-08-19T01:05:17;20.80;99.90
23697;DHT22;48864;50.820;4.400;2022-08-19T01:07:44;20.60;99.90
23697;DHT22;48864;50.820;4.400;2022-08-19T01:10:13;20.90;99.90
23697;DHT22;48864;50.820;4.400;2022-08-19T01:12:40;20.90;99.90
23697;DHT22;48864;50.820;4.400;2022-08-19T01:15:09;20.90;99.90
23697;DHT22;48864;50.820;4.400;2022-08-19T01:17:38;20.80;99.90
23697;DHT22;48864;50.820;4.400;2022-08-19T01:20:06;20.80;99.90
23697;DHT22;48864;50.820;4.400;2022-08-19T01:22:44;20.80;99.90
23697;DHT22;48864;50.820;4.400;2022-08-19T01:25:13;20.80;99.90
23697;DHT22;48864;50.820;4.400;2022-08-19T01:27:42;20.70;99.90
23697;DHT22;48864;50.820;4.400;2022-08-19T01:30:10;20.50;99.90
23697;DHT22;48864;50.820;4.400;2022-08-19T01:32:36;20.60;99.90
23697;DHT22;48864;50.820;4.400;2022-08-19T01:35:03;20.50;99.90
23697;DHT22;48864;50.820;4.400;2022-08-19T01:37:29;20.40;99.90
23697;DHT22;48864;50.820;4.400;2022-08-19T01:39:56;20.30;99.90
23697;DHT22;48864;50.820;4.400;2022-08-19T01:42:29;20.10;99.90
23697;DHT22;48864;50.820;4.400;2022-08-19T01:44:57;20.20;99.90
23697;DHT22;48864;50.820;4.400;2022-08-19T01:47:22;20.10;99.90
23697;DHT22;48864;50.820;4.400;2022-08-19T01:49:48;19.90;99.90
23697;DHT22;48864;50.820;4.400;2022-08-19T01:52:13;20.00;99.90
23697;DHT22;48864;50.820;4.400;2022-08-19T01:54:39;19.90;99.90
23697;DHT22;48864;50.820;4.400;2022-08-19T01:57:07;20.00;99.90
23697;DHT22;48864;50.820;4.400;2022-08-19T01:59:34;20.10;99.90
23697;DHT22;48864;50.820;4.400;2022-08-19T02:02:03;20.20;99.90
23697;DHT22;48864;50.820;4.400;2022-08-19T02:04:29;20.20;99.90
23697;DHT22;48864;50.820;4.400;2022-08-19T02:06:55;20.20;99.90
23697;DHT22;48864;50.820;4.400;2022-08-19T02:09:20;20.20;99.90
23697;DHT22;48864;50.820;4.400;2022-08-19T02:11:46;20.40;99.90
23697;DHT22;48864;50.820;4.400;2022-08-19T02:14:11;20.30;99.90
23697;DHT22;48864;50.820;4.400;2022-08-19T02:16:37;20.30;99.90
23697;DHT22;48864;50.820;4.400;2022-08-19T02:19:03;20.00;99.90
23697;DHT22;48864;50.820;4.400;2022-08-19T02:21:29;19.70;99.90
23697;DHT22;48864;50.820;4.400;2022-08-19T02:23:55;19.50;99.90
23697;DHT22;48864;50.820;4.400;2022-08-19T02:26:21;19.50;99.90
23697;DHT22;48864;50.820;4.400;2022-08-19T02:28:47;19.60;99.90
23697;DHT22;48864;50.820;4.400;2022-08-19T02:31:17;19.60;99.90
23697;DHT22;48864;50.820;4.400;2022-08-19T02:33:44;19.60;99.90
23697;DHT22;48864;50.820;4.400;2022-08-19T02:36:11;19.60;99.90
23697;DHT22;48864;50.820;4.400;2022-08-19T02:38:37;19.40;99.90
23697;DHT22;48864;50.820;4.400;2022-08-19T02:41:06;19.40;99.90
23697;DHT22;48864;50.820;4.400;2022-08-19T02:43:33;19.40;99.90
23697;DHT22;48864;50.820;4.400;2022-08-19T02:46:11;19.20;99.90
23697;DHT22;48864;50.820;4.400;2022-08-19T02:48:37;19.10;99.90
23697;DHT22;48864;50.820;4.400;2022-08-19T02:51:02;19.10;99.90
23697;DHT22;48864;50.820;4.400;2022-08-19T02:53:28;19.10;99.90
23697;DHT22;48864;50.820;4.400;2022-08-19T02:55:54;19.20;99.90
23697;DHT22;48864;50.820;4.400;2022-08-19T02:58:21;19.30;99.90
23697;DHT22;48864;50.820;4.400;2022-08-19T03:00:50;19.40;99.90
23697;DHT22;48864;50.820;4.400;2022-08-19T03:03:16;19.20;99.90
23697;DHT22;48864;50.820;4.400;2022-08-19T03:05:43;19.10;99.90
23697;DHT22;48864;50.820;4.400;2022-08-19T03:08:12;18.80;99.90
23697;DHT22;48864;50.820;4.400;2022-08-19T03:10:43;18.70;99.90
23697;DHT22;48864;50.820;4.400;2022-08-19T03:13:14;18.70;99.90
23697;DHT22;48864;50.820;4.400;2022-08-19T03:15:45;18.80;99.90
23697;DHT22;48864;50.820;4.400;2022-08-19T03:18:11;18.70;99.90
23697;DHT22;48864;50.820;4.400;2022-08-19T03:20:49;18.60;99.90
23697;DHT22;48864;50.820;4.400;2022-08-19T03:23:16;18.80;99.90
23697;DHT22;48864;50.820;4.400;2022-08-19T03:25:43;18.90;99.90
23697;DHT22;48864;50.820;4.400;2022-08-19T03:28:14;18.80;99.90
23697;DHT22;48864;50.820;4.400;2022-08-19T03:30:41;18.80;99.90
23697;DHT22;48864;50.820;4.400;2022-08-19T03:33:09;18.70;99.90
23697;DHT22;48864;50.820;4.400;2022-08-19T03:35:35;18.40;99.90
23697;DHT22;48864;50.820;4.400;2022-08-19T03:38:03;18.40;99.90
23697;DHT22;48864;50.820;4.400;2022-08-19T03:40:28;18.30;99.90
23697;DHT22;48864;50.820;4.400;2022-08-19T03:42:56;18.20;99.90
23697;DHT22;48864;50.820;4.400;2022-08-19T03:45:22;18.30;99.90
23697;DHT22;48864;50.820;4.400;2022-08-19T03:47:48;18.50;99.90
23697;DHT22;48864;50.820;4.400;2022-08-19T03:50:14;18.60;99.90
23697;DHT22;48864;50.820;4.400;2022-08-19T03:52:39;18.30;99.90
23697;DHT22;48864;50.820;4.400;2022-08-19T03:55:05;18.50;99.90
23697;DHT22;48864;50.820;4.400;2022-08-19T03:57:33;18.30;99.90
23697;DHT22;48864;50.820;4.400;2022-08-19T04:00:00;18.10;99.90
23697;DHT22;48864;50.820;4.400;2022-08-19T04:02:25;18.20;99.90
23697;DHT22;48864;50.820;4.400;2022-08-19T04:04:53;18.20;99.90
23697;DHT22;48864;50.820;4.400;2022-08-19T04:07:20;18.20;99.90
23697;DHT22;48864;50.820;4.400;2022-08-19T04:09:47;18.30;99.90
23697;DHT22;48864;50.820;4.400;2022-08-19T04:12:12;18.30;99.90
23697;DHT22;48864;50.820;4.400;2022-08-19T04:14:38;18.10;99.90
23697;DHT22;48864;50.820;4.400;2022-08-19T04:17:05;18.00;99.90
23697;DHT22;48864;50.820;4.400;2022-08-19T04:19:35;17.90;99.90
23697;DHT22;48864;50.820;4.400;2022-08-19T04:22:01;17.80;99.90
23697;DHT22;48864;50.820;4.400;2022-08-19T04:24:27;17.70;99.90
23697;DHT22;48864;50.820;4.400;2022-08-19T04:26:53;17.60;99.90
23697;DHT22;48864;50.820;4.400;2022-08-19T04:29:22;17.60;99.90
23697;DHT22;48864;50.820;4.400;2022-08-19T04:34:20;17.70;99.90
23697;DHT22;48864;50.820;4.400;2022-08-19T04:36:47;17.60;99.90
23697;DHT22;48864;50.820;4.400;2022-08-19T04:39:18;17.60;99.90
23697;DHT22;48864;50.820;4.400;2022-08-19T04:41:45;17.50;99.90
23697;DHT22;48864;50.820;4.400;2022-08-19T04:44:48;17.50;99.90
23697;DHT22;48864;50.820;4.400;2022-08-19T04:47:16;17.50;99.90
23697;DHT22;48864;50.820;4.400;2022-08-19T04:49:41;17.70;99.90
23697;DHT22;48864;50.820;4.400;2022-08-19T04:52:07;17.60;99.90
23697;DHT22;48864;50.820;4.400;2022-08-19T04:54:33;17.70;99.90
23697;DHT22;48864;50.820;4.400;2022-08-19T04:56:59;17.70;99.90
23697;DHT22;48864;50.820;4.400;2022-08-19T04:59:24;17.70;99.90
23697;DHT22;48864;50.820;4.400;2022-08-19T05:01:50;17.60;99.90
23697;DHT22;48864;50.820;4.400;2022-08-19T05:04:19;17.50;99.90
23697;DHT22;48864;50.820;4.400;2022-08-19T05:06:47;17.60;99.90
23697;DHT22;48864;50.820;4.400;2022-08-19T05:09:13;17.50;99.90
23697;DHT22;48864;50.820;4.400;2022-08-19T05:11:39;17.80;99.90
23697;DHT22;48864;50.820;4.400;2022-08-19T05:14:06;17.90;99.90
23697;DHT22;48864;50.820;4.400;2022-08-19T05:16:32;17.80;99.90
23697;DHT22;48864;50.820;4.400;2022-08-19T05:18:58;17.80;99.90
23697;DHT22;48864;50.820;4.400;2022-08-19T05:21:42;17.90;99.90
23697;DHT22;48864;50.820;4.400;2022-08-19T05:24:27;17.90;99.90
23697;DHT22;48864;50.820;4.400;2022-08-19T05:26:55;18.00;99.90
23697;DHT22;48864;50.820;4.400;2022-08-19T05:29:23;18.10;99.90
23697;DHT22;48864;50.820;4.400;2022-08-19T05:31:50;18.10;99.90
23697;DHT22;48864;50.820;4.400;2022-08-19T05:34:17;18.20;99.90
23697;DHT22;48864;50.820;4.400;2022-08-19T05:36:44;18.30;99.90
23697;DHT22;48864;50.820;4.400;2022-08-19T05:39:16;18.10;99.90
23697;DHT22;48864;50.820;4.400;2022-08-19T05:41:45;18.00;99.90
23697;DHT22;48864;50.820;4.400;2022-08-19T05:44:11;18.10;99.90
23697;DHT22;48864;50.820;4.400;2022-08-19T05:46:37;18.10;99.90
23697;DHT22;48864;50.820;4.400;2022-08-19T05:49:05;18.00;99.90
23697;DHT22;48864;50.820;4.400;2022-08-19T05:51:32;18.10;99.90
23697;DHT22;48864;50.820;4.400;2022-08-19T05:53:59;18.10;99.90
23697;DHT22;48864;50.820;4.400;2022-08-19T05:56:25;18.10;99.90
23697;DHT22;48864;50.820;4.400;2022-08-19T05:58:52;18.00;99.90
23697;DHT22;48864;50.820;4.400;2022-08-19T06:01:20;18.10;99.90
23697;DHT22;48864;50.820;4.400;2022-08-19T06:03:50;18.20;99.90
23697;DHT22;48864;50.820;4.400;2022-08-19T06:06:16;18.10;99.90
23697;DHT22;48864;50.820;4.400;2022-08-19T06:08:45;18.00;99.90
23697;DHT22;48864;50.820;4.400;2022-08-19T06:11:46;18.10;99.90
23697;DHT22;48864;50.820;4.400;2022-08-19T06:14:18;17.90;99.90
23697;DHT22;48864;50.820;4.400;2022-08-19T06:16:46;17.90;99.90
23697;DHT22;48864;50.820;4.400;2022-08-19T06:19:17;17.90;99.90
23697;DHT22;48864;50.820;4.400;2022-08-19T06:21:46;18.00;99.90
23697;DHT22;48864;50.820;4.400;2022-08-19T06:24:14;18.00;99.90
23697;DHT22;48864;50.820;4.400;2022-08-19T06:26:43;18.00;99.90
23697;DHT22;48864;50.820;4.400;2022-08-19T06:29:12;18.10;99.90
23697;DHT22;48864;50.820;4.400;2022-08-19T06:31:41;18.10;99.90
23697;DHT22;48864;50.820;4.400;2022-08-19T06:34:07;18.00;99.90
23697;DHT22;48864;50.820;4.400;2022-08-19T06:36:37;17.90;99.90
23697;DHT22;48864;50.820;4.400;2022-08-19T06:39:06;17.90;99.90
23697;DHT22;48864;50.820;4.400;2022-08-19T06:41:36;17.90;99.90
23697;DHT22;48864;50.820;4.400;2022-08-19T06:44:09;18.10;99.90
23697;DHT22;48864;50.820;4.400;2022-08-19T06:46:38;18.10;99.90
23697;DHT22;48864;50.820;4.400;2022-08-19T06:49:04;18.20;99.90
23697;DHT22;48864;50.820;4.400;2022-08-19T06:51:32;18.30;99.90
23697;DHT22;48864;50.820;4.400;2022-08-19T06:54:02;18.20;99.90
23697;DHT22;48864;50.820;4.400;2022-08-19T06:56:31;18.40;99.90
23697;DHT22;48864;50.820;4.400;2022-08-19T06:59:06;18.30;99.90
23697;DHT22;48864;50.820;4.400;2022-08-19T07:01:49;18.40;99.90
23697;DHT22;48864;50.820;4.400;2022-08-19T07:04:26;18.40;99.90
23697;DHT22;48864;50.820;4.400;2022-08-19T07:06:58;18.40;99.90
23697;DHT22;48864;50.820;4.400;2022-08-19T07:09:27;18.30;99.90
23697;DHT22;48864;50.820;4.400;2022-08-19T07:11:54;18.30;99.90
23697;DHT22;48864;50.820;4.400;2022-08-19T07:14:23;18.30;99.90
23697;DHT22;48864;50.820;4.400;2022-08-19T07:16:51;18.50;99.90
23697;DHT22;48864;50.820;4.400;2022-08-19T07:19:43;18.70;99.90
23697;DHT22;48864;50.820;4.400;2022-08-19T07:22:25;18.80;99.90
23697;DHT22;48864;50.820;4.400;2022-08-19T07:24:54;18.90;99.90
23697;DHT22;48864;50.820;4.400;2022-08-19T07:27:21;18.90;99.90
23697;DHT22;48864;50.820;4.400;2022-08-19T07:30:00;18.90;99.90
23697;DHT22;48864;50.820;4.400;2022-08-19T07:32:36;18.90;99.90
23697;DHT22;48864;50.820;4.400;2022-08-19T07:35:05;19.00;99.90
23697;DHT22;48864;50.820;4.400;2022-08-19T07:37:43;18.90;99.90
23697;DHT22;48864;50.820;4.400;2022-08-19T07:40:26;19.00;99.90
23697;DHT22;48864;50.820;4.400;2022-08-19T07:42:59;19.00;99.90
23697;DHT22;48864;50.820;4.400;2022-08-19T07:45:26;19.10;99.90
23697;DHT22;48864;50.820;4.400;2022-08-19T07:47:56;19.00;99.90
23697;DHT22;48864;50.820;4.400;2022-08-19T07:50:25;19.10;99.90
23697;DHT22;48864;50.820;4.400;2022-08-19T07:52:51;19.10;99.90
23697;DHT22;48864;50.820;4.400;2022-08-19T07:55:28;19.10;99.90
23697;DHT22;48864;50.820;4.400;2022-08-19T07:58:14;19.30;99.90
23697;DHT22;48864;50.820;4.400;2022-08-19T08:01:04;19.40;99.90
23697;DHT22;48864;50.820;4.400;2022-08-19T08:03:30;19.30;99.90
23697;DHT22;48864;50.820;4.400;2022-08-19T08:06:21;19.40;99.90
23697;DHT22;48864;50.820;4.400;2022-08-19T08:09:12;19.50;99.90
23697;DHT22;48864;50.820;4.400;2022-08-19T08:12:07;19.60;99.90
23697;DHT22;48864;50.820;4.400;2022-08-19T08:14:42;19.50;99.90
23697;DHT22;48864;50.820;4.400;2022-08-19T08:17:09;19.70;99.90
23697;DHT22;48864;50.820;4.400;2022-08-19T08:19:36;19.80;99.90
23697;DHT22;48864;50.820;4.400;2022-08-19T08:22:03;19.90;99.90
23697;DHT22;48864;50.820;4.400;2022-08-19T08:24:31;19.80;99.90
23697;DHT22;48864;50.820;4.400;2022-08-19T08:26:58;19.80;99.90
23697;DHT22;48864;50.820;4.400;2022-08-19T08:29:26;19.80;99.90
23697;DHT22;48864;50.820;4.400;2022-08-19T08:31:52;19.90;99.90
23697;DHT22;48864;50.820;4.400;2022-08-19T08:34:19;19.90;99.90
23697;DHT22;48864;50.820;4.400;2022-08-19T08:36:46;19.90;99.90
23697;DHT22;48864;50.820;4.400;2022-08-19T08:39:16;19.80;99.90
23697;DHT22;48864;50.820;4.400;2022-08-19T08:42:15;19.80;99.90
23697;DHT22;48864;50.820;4.400;2022-08-19T08:47:19;19.80;99.90
23697;DHT22;48864;50.820;4.400;2022-08-19T08:52:37;19.90;99.90
23697;DHT22;48864;50.820;4.400;2022-08-19T08:55:16;19.90;99.90
23697;DHT22;48864;50.820;4.400;2022-08-19T08:58:09;20.00;99.90
23697;DHT22;48864;50.820;4.400;2022-08-19T09:00:44;20.00;99.90
23697;DHT22;48864;50.820;4.400;2022-08-19T09:06:11;20.20;99.90
23697;DHT22;48864;50.820;4.400;2022-08-19T09:09:10;20.20;99.90
23697;DHT22;48864;50.820;4.400;2022-08-19T09:12:23;20.20;99.90
23697;DHT22;48864;50.820;4.400;2022-08-19T09:14:49;20.20;99.90
23697;DHT22;48864;50.820;4.400;2022-08-19T09:17:19;20.20;99.90
23697;DHT22;48864;50.820;4.400;2022-08-19T09:22:38;20.30;99.90
23697;DHT22;48864;50.820;4.400;2022-08-19T09:25:06;20.20;99.90
23697;DHT22;48864;50.820;4.400;2022-08-19T09:27:32;20.30;99.90
23697;DHT22;48864;50.820;4.400;2022-08-19T09:29:58;20.30;99.90
23697;DHT22;48864;50.820;4.400;2022-08-19T09:32:25;20.40;99.90
23697;DHT22;48864;50.820;4.400;2022-08-19T09:34:54;20.40;99.90
23697;DHT22;48864;50.820;4.400;2022-08-19T09:37:26;20.50;99.90
23697;DHT22;48864;50.820;4.400;2022-08-19T09:39:52;20.60;99.90
23697;DHT22;48864;50.820;4.400;2022-08-19T09:42:21;20.50;99.90
23697;DHT22;48864;50.820;4.400;2022-08-19T09:44:48;20.60;99.90
23697;DHT22;48864;50.820;4.400;2022-08-19T09:47:15;20.50;99.90
23697;DHT22;48864;50.820;4.400;2022-08-19T09:49:41;20.50;99.90
23697;DHT22;48864;50.820;4.400;2022-08-19T09:52:11;20.60;99.90
23697;DHT22;48864;50.820;4.400;2022-08-19T09:54:38;20.60;99.90
23697;DHT22;48864;50.820;4.400;2022-08-19T09:57:04;20.60;99.90
23697;DHT22;48864;50.820;4.400;2022-08-19T09:59:30;20.60;99.90
23697;DHT22;48864;50.820;4.400;2022-08-19T10:01:56;20.60;99.90
23697;DHT22;48864;50.820;4.400;2022-08-19T10:04:22;20.80;99.90
23697;DHT22;48864;50.820;4.400;2022-08-19T10:06:49;21.00;99.90
23697;DHT22;48864;50.820;4.400;2022-08-19T10:09:17;20.80;99.90
23697;DHT22;48864;50.820;4.400;2022-08-19T10:11:44;20.70;99.90
23697;DHT22;48864;50.820;4.400;2022-08-19T10:14:15;20.70;99.90
23697;DHT22;48864;50.820;4.400;2022-08-19T10:16:42;20.80;99.90
23697;DHT22;48864;50.820;4.400;2022-08-19T10:19:08;20.90;99.90
23697;DHT22;48864;50.820;4.400;2022-08-19T10:21:34;20.80;99.90
23697;DHT22;48864;50.820;4.400;2022-08-19T10:24:02;20.80;99.90
23697;DHT22;48864;50.820;4.400;2022-08-19T10:26:34;20.90;99.90
23697;DHT22;48864;50.820;4.400;2022-08-19T10:29:05;20.90;99.90
23697;DHT22;48864;50.820;4.400;2022-08-19T10:31:32;21.00;99.90
23697;DHT22;48864;50.820;4.400;2022-08-19T10:33:59;21.10;99.90
23697;DHT22;48864;50.820;4.400;2022-08-19T10:39:20;21.10;99.90
23697;DHT22;48864;50.820;4.400;2022-08-19T10:41:49;21.10;99.90
23697;DHT22;48864;50.820;4.400;2022-08-19T10:44:31;21.00;99.90
23697;DHT22;48864;50.820;4.400;2022-08-19T10:47:00;20.80;99.90
23697;DHT22;48864;50.820;4.400;2022-08-19T10:50:13;20.90;99.90
23697;DHT22;48864;50.820;4.400;2022-08-19T10:52:57;20.80;99.90
23697;DHT22;48864;50.820;4.400;2022-08-19T10:55:28;20.90;99.90
23697;DHT22;48864;50.820;4.400;2022-08-19T10:58:17;20.90;99.90
23697;DHT22;48864;50.820;4.400;2022-08-19T11:00:43;20.90;99.90
23697;DHT22;48864;50.820;4.400;2022-08-19T11:03:15;20.80;99.90
23697;DHT22;48864;50.820;4.400;2022-08-19T11:05:41;20.90;99.90
23697;DHT22;48864;50.820;4.400;2022-08-19T11:08:08;21.00;99.90
23697;DHT22;48864;50.820;4.400;2022-08-19T11:10:41;21.00;99.90
23697;DHT22;48864;50.820;4.400;2022-08-19T11:13:06;21.10;99.90
23697;DHT22;48864;50.820;4.400;2022-08-19T11:15:32;21.20;99.90
23697;DHT22;48864;50.820;4.400;2022-08-19T11:17:58;21.30;99.90
23697;DHT22;48864;50.820;4.400;2022-08-19T11:20:24;21.10;99.90
23697;DHT22;48864;50.820;4.400;2022-08-19T11:22:51;20.90;99.90
23697;DHT22;48864;50.820;4.400;2022-08-19T11:25:18;20.90;99.90
23697;DHT22;48864;50.820;4.400;2022-08-19T11:27:43;20.90;99.90
23697;DHT22;48864;50.820;4.400;2022-08-19T11:30:12;20.90;99.90
23697;DHT22;48864;50.820;4.400;2022-08-19T11:32:38;20.80;99.90
23697;DHT22;48864;50.820;4.400;2022-08-19T11:35:04;20.90;99.90
23697;DHT22;48864;50.820;4.400;2022-08-19T11:37:30;21.10;99.90
23697;DHT22;48864;50.820;4.400;2022-08-19T11:39:56;21.10;99.90
23697;DHT22;48864;50.820;4.400;2022-08-19T11:42:21;21.10;99.90
23697;DHT22;48864;50.820;4.400;2022-08-19T11:45:05;21.10;99.90
23697;DHT22;48864;50.820;4.400;2022-08-19T11:47:31;21.20;99.90
23697;DHT22;48864;50.820;4.400;2022-08-19T11:49:57;21.30;99.90
23697;DHT22;48864;50.820;4.400;2022-08-19T11:52:23;21.50;99.90
23697;DHT22;48864;50.820;4.400;2022-08-19T11:54:48;21.60;99.90
23697;DHT22;48864;50.820;4.400;2022-08-19T11:57:14;21.50;99.90
23697;DHT22;48864;50.820;4.400;2022-08-19T11:59:47;21.50;99.90
23697;DHT22;48864;50.820;4.400;2022-08-19T12:02:12;21.50;99.90
23697;DHT22;48864;50.820;4.400;2022-08-19T12:04:40;21.70;99.90
23697;DHT22;48864;50.820;4.400;2022-08-19T12:07:06;21.70;99.90
23697;DHT22;48864;50.820;4.400;2022-08-19T12:09:31;21.80;99.90
23697;DHT22;48864;50.820;4.400;2022-08-19T12:11:59;21.90;99.90
23697;DHT22;48864;50.820;4.400;2022-08-19T12:14:26;22.00;99.90
23697;DHT22;48864;50.820;4.400;2022-08-19T12:16:53;22.10;99.90
23697;DHT22;48864;50.820;4.400;2022-08-19T12:19:19;22.00;99.90
23697;DHT22;48864;50.820;4.400;2022-08-19T12:21:44;22.20;99.90
23697;DHT22;48864;50.820;4.400;2022-08-19T12:24:10;22.30;99.90
23697;DHT22;48864;50.820;4.400;2022-08-19T12:26:36;22.40;99.90
23697;DHT22;48864;50.820;4.400;2022-08-19T12:29:02;22.40;99.90
23697;DHT22;48864;50.820;4.400;2022-08-19T12:31:29;22.50;99.90
23697;DHT22;48864;50.820;4.400;2022-08-19T12:33:55;22.40;99.90
23697;DHT22;48864;50.820;4.400;2022-08-19T12:36:21;22.60;99.90
23697;DHT22;48864;50.820;4.400;2022-08-19T12:38:48;22.70;99.90
23697;DHT22;48864;50.820;4.400;2022-08-19T12:41:16;22.70;99.90
23697;DHT22;48864;50.820;4.400;2022-08-19T12:43:43;22.50;99.90
23697;DHT22;48864;50.820;4.400;2022-08-19T12:46:10;22.50;99.90
23697;DHT22;48864;50.820;4.400;2022-08-19T12:48:36;22.50;99.90
23697;DHT22;48864;50.820;4.400;2022-08-19T12:51:15;22.50;99.90
23697;DHT22;48864;50.820;4.400;2022-08-19T12:53:41;22.70;99.90
23697;DHT22;48864;50.820;4.400;2022-08-19T12:56:09;22.60;99.90
23697;DHT22;48864;50.820;4.400;2022-08-19T12:58:35;22.50;99.90
23697;DHT22;48864;50.820;4.400;2022-08-19T13:01:27;22.60;99.90
23697;DHT22;48864;50.820;4.400;2022-08-19T13:03:56;22.60;99.90
23697;DHT22;48864;50.820;4.400;2022-08-19T13:06:21;22.60;99.90
23697;DHT22;48864;50.820;4.400;2022-08-19T13:08:48;22.70;99.90
23697;DHT22;48864;50.820;4.400;2022-08-19T13:11:16;23.00;99.90
23697;DHT22;48864;50.820;4.400;2022-08-19T13:13:44;23.00;99.90
23697;DHT22;48864;50.820;4.400;2022-08-19T13:16:11;23.20;99.90
23697;DHT22;48864;50.820;4.400;2022-08-19T13:18:38;23.30;99.90
23697;DHT22;48864;50.820;4.400;2022-08-19T13:21:06;23.50;99.90
23697;DHT22;48864;50.820;4.400;2022-08-19T13:23:33;23.60;99.90
23697;DHT22;48864;50.820;4.400;2022-08-19T13:26:02;23.50;99.90
23697;DHT22;48864;50.820;4.400;2022-08-19T13:28:28;23.60;99.90
23697;DHT22;48864;50.820;4.400;2022-08-19T13:31:21;23.60;99.90
23697;DHT22;48864;50.820;4.400;2022-08-19T13:34:07;23.50;99.90
23697;DHT22;48864;50.820;4.400;2022-08-19T13:36:33;23.40;99.90
23697;DHT22;48864;50.820;4.400;2022-08-19T13:38:59;23.40;99.90
23697;DHT22;48864;50.820;4.400;2022-08-19T13:41:25;23.30;99.90
23697;DHT22;48864;50.820;4.400;2022-08-19T13:43:50;23.40;99.90
23697;DHT22;48864;50.820;4.400;2022-08-19T13:46:16;23.60;99.90
23697;DHT22;48864;50.820;4.400;2022-08-19T13:48:42;23.70;99.90
23697;DHT22;48864;50.820;4.400;2022-08-19T13:51:08;23.70;99.90
23697;DHT22;48864;50.820;4.400;2022-08-19T13:53:37;23.80;99.90
23697;DHT22;48864;50.820;4.400;2022-08-19T13:56:11;23.90;99.90
23697;DHT22;48864;50.820;4.400;2022-08-19T13:58:38;23.80;99.90
23697;DHT22;48864;50.820;4.400;2022-08-19T14:01:04;23.80;99.90
23697;DHT22;48864;50.820;4.400;2022-08-19T14:03:31;23.70;99.90
23697;DHT22;48864;50.820;4.400;2022-08-19T14:05:56;23.60;99.90
23697;DHT22;48864;50.820;4.400;2022-08-19T14:08:22;23.70;99.90
23697;DHT22;48864;50.820;4.400;2022-08-19T14:10:49;23.60;99.90
23697;DHT22;48864;50.820;4.400;2022-08-19T14:13:17;23.60;99.90
23697;DHT22;48864;50.820;4.400;2022-08-19T14:15:44;23.50;99.90
23697;DHT22;48864;50.820;4.400;2022-08-19T14:18:10;23.40;99.90
23697;DHT22;48864;50.820;4.400;2022-08-19T14:20:35;23.20;99.90
23697;DHT22;48864;50.820;4.400;2022-08-19T14:23:01;23.00;99.90
23697;DHT22;48864;50.820;4.400;2022-08-19T14:25:29;23.00;99.90
23697;DHT22;48864;50.820;4.400;2022-08-19T14:27:55;22.90;99.90
23697;DHT22;48864;50.820;4.400;2022-08-19T14:30:24;22.80;99.90
23697;DHT22;48864;50.820;4.400;2022-08-19T14:32:52;22.80;99.90
23697;DHT22;48864;50.820;4.400;2022-08-19T14:35:18;22.80;99.90
23697;DHT22;48864;50.820;4.400;2022-08-19T14:37:44;22.60;99.90
23697;DHT22;48864;50.820;4.400;2022-08-19T14:40:10;22.50;99.90
23697;DHT22;48864;50.820;4.400;2022-08-19T14:42:37;22.40;99.90
23697;DHT22;48864;50.820;4.400;2022-08-19T14:45:03;22.10;99.90
23697;DHT22;48864;50.820;4.400;2022-08-19T14:47:30;21.90;99.90
23697;DHT22;48864;50.820;4.400;2022-08-19T14:49:56;21.90;99.90
23697;DHT22;48864;50.820;4.400;2022-08-19T14:52:21;21.80;99.90
23697;DHT22;48864;50.820;4.400;2022-08-19T14:54:47;21.80;99.90
23697;DHT22;48864;50.820;4.400;2022-08-19T14:57:13;22.00;99.90
23697;DHT22;48864;50.820;4.400;2022-08-19T14:59:40;22.10;99.90
23697;DHT22;48864;50.820;4.400;2022-08-19T15:02:06;22.20;99.90
23697;DHT22;48864;50.820;4.400;2022-08-19T15:04:32;22.30;99.90
23697;DHT22;48864;50.820;4.400;2022-08-19T15:06:58;22.60;99.90
23697;DHT22;48864;50.820;4.400;2022-08-19T15:09:23;22.70;99.90
23697;DHT22;48864;50.820;4.400;2022-08-19T15:11:49;22.80;99.90
23697;DHT22;48864;50.820;4.400;2022-08-19T15:14:15;22.70;99.90
23697;DHT22;48864;50.820;4.400;2022-08-19T15:16:42;22.80;99.90
23697;DHT22;48864;50.820;4.400;2022-08-19T15:19:08;22.80;99.90
23697;DHT22;48864;50.820;4.400;2022-08-19T15:21:34;22.70;99.90
23697;DHT22;48864;50.820;4.400;2022-08-19T15:24:02;22.70;99.90
23697;DHT22;48864;50.820;4.400;2022-08-19T15:26:28;22.80;99.90
23697;DHT22;48864;50.820;4.400;2022-08-19T15:28:57;22.80;99.90
23697;DHT22;48864;50.820;4.400;2022-08-19T15:31:25;22.90;99.90
23697;DHT22;48864;50.820;4.400;2022-08-19T15:33:51;22.80;99.90
23697;DHT22;48864;50.820;4.400;2022-08-19T15:36:17;22.80;99.90
23697;DHT22;48864;50.820;4.400;2022-08-19T15:38:42;23.00;99.90
23697;DHT22;48864;50.820;4.400;2022-08-19T15:41:20;23.00;99.90
23697;DHT22;48864;50.820;4.400;2022-08-19T15:43:59;23.00;99.90
23697;DHT22;48864;50.820;4.400;2022-08-19T15:46:28;22.80;99.90
23697;DHT22;48864;50.820;4.400;2022-08-19T15:48:57;22.80;99.90
23697;DHT22;48864;50.820;4.400;2022-08-19T15:51:24;22.80;99.90
23697;DHT22;48864;50.820;4.400;2022-08-19T15:53:50;22.80;99.90
23697;DHT22;48864;50.820;4.400;2022-08-19T15:56:16;22.90;99.90
23697;DHT22;48864;50.820;4.400;2022-08-19T15:58:42;23.00;99.90